Time;durP1;ratioP1;P1;durP2;ratioP2;P2;SDS_P1;SDS_P2;PMS_P1;PMS_P2;Temp;Humidity;BMP_temperature;BMP_pressure;BME280_temperature;BME280_humidity;BME280_pressure;Samples;Min_cycle;Max_cycle;Signal;HPM_P1;HPM_P2
2021/01/26 00:00:54;;;;;;;20.73;14.13;;;;;;;;;;4932592;29;20295;-81
2021/01/26 00:03:21;;;;;;;21.47;14.80;;;;;;;;;;4949306;29;20310;-78
2021/01/26 00:05:47;;;;;;;22.10;13.60;;;;;;;;;;4948663;29;20300;-80
2021/01/26 00:08:14;;;;;;;21.03;13.57;;;;;;;;;;4930945;29;20287;-78
2021/01/26 00:10:40;;;;;;;24.40;15.33;;;;;;;;;;4947682;28;20718;-81
2021/01/26 00:13:07;;;;;;;23.23;14.60;;;;;;;;;;4934772;29;20366;-80
2021/01/26 00:15:33;;;;;;;26.00;16.43;;;;;;;;;;4938186;29;20335;-81
2021/01/26 00:17:59;;;;;;;21.37;13.73;;;;;;;;;;4950851;29;20339;-79
2021/01/26 00:20:27;;;;;;;21.40;13.03;;;;;;;;;;4935139;29;20298;-79
2021/01/26 00:22:53;;;;;;;18.70;12.50;;;;;;;;;;4946840;29;20857;-79
2021/01/26 00:25:24;;;;;;;15.90;10.93;;;;;;;;;;4949935;29;20295;-80
2021/01/26 00:27:51;;;;;;;15.20;9.47;;;;;;;;;;4937091;29;20767;-81
2021/01/26 00:30:24;;;;;;;17.00;10.33;;;;;;;;;;4947189;28;20870;-81
2021/01/26 00:32:50;;;;;;;;;;;;;;;;;;4952792;29;20282;-81
2021/01/26 00:35:17;;;;;;;12.50;7.73;;;;;;;;;;4952401;29;20013;-81
2021/01/26 00:37:44;;;;;;;13.10;8.53;;;;;;;;;;4966081;28;20042;-81
2021/01/26 00:40:10;;;;;;;12.67;7.60;;;;;;;;;;4934318;29;20291;-81
2021/01/26 00:42:36;;;;;;;13.10;8.07;;;;;;;;;;4951024;29;20598;-81
2021/01/26 00:45:10;;;;;;;13.83;8.20;;;;;;;;;;4937008;29;20280;-81
2021/01/26 00:47:37;;;;;;;17.37;8.53;;;;;;;;;;4936550;29;20279;-80
2021/01/26 00:50:05;;;;;;;12.43;8.10;;;;;;;;;;4936350;29;20283;-81
2021/01/26 00:52:31;;;;;;;13.47;7.47;;;;;;;;;;4936111;29;20307;-80
2021/01/26 00:54:57;;;;;;;12.50;7.63;;;;;;;;;;4937217;29;20274;-81
2021/01/26 00:57:23;;;;;;;13.13;7.87;;;;;;;;;;4934719;29;20355;-81
2021/01/26 00:59:50;;;;;;;12.83;8.10;;;;;;;;;;4934698;29;20286;-79
2021/01/26 01:02:17;;;;;;;15.03;9.47;;;;;;;;;;4936103;29;20260;-79
2021/01/26 01:04:44;;;;;;;16.40;10.03;;;;;;;;;;4952147;29;20314;-78
2021/01/26 01:07:10;;;;;;;15.57;9.93;;;;;;;;;;4935625;29;20808;-80
2021/01/26 01:09:37;;;;;;;16.47;9.80;;;;;;;;;;4931552;29;20355;-79
2021/01/26 01:12:03;;;;;;;18.17;11.50;;;;;;;;;;4951428;29;20267;-80
2021/01/26 01:14:29;;;;;;;18.67;11.70;;;;;;;;;;4936916;29;20800;-81
2021/01/26 01:16:55;;;;;;;18.50;10.30;;;;;;;;;;4935272;29;20303;-80
2021/01/26 01:19:23;;;;;;;18.93;12.03;;;;;;;;;;4934108;29;20389;-80
2021/01/26 01:21:49;;;;;;;19.60;11.70;;;;;;;;;;4936063;29;20279;-80
2021/01/26 01:24:15;;;;;;;18.27;11.73;;;;;;;;;;4938788;28;20271;-80
2021/01/26 01:26:41;;;;;;;20.93;12.97;;;;;;;;;;4950003;28;20270;-81
2021/01/26 01:29:07;;;;;;;20.00;11.90;;;;;;;;;;4949706;28;20292;-79
2021/01/26 01:31:33;;;;;;;20.10;12.60;;;;;;;;;;4951422;29;20319;-81
2021/01/26 01:33:59;;;;;;;21.33;13.00;;;;;;;;;;4950016;29;20291;-80
2021/01/26 01:36:26;;;;;;;21.10;14.33;;;;;;;;;;4949558;29;20271;-81
2021/01/26 01:38:52;;;;;;;21.10;13.77;;;;;;;;;;4932372;29;20294;-79
2021/01/26 01:41:18;;;;;;;18.93;12.83;;;;;;;;;;4935013;29;20276;-81
2021/01/26 01:43:49;;;;;;;21.63;13.17;;;;;;;;;;4934275;29;20276;-81
2021/01/26 01:46:17;;;;;;;20.13;12.87;;;;;;;;;;4949764;29;20291;-81
2021/01/26 01:48:43;;;;;;;19.67;12.83;;;;;;;;;;4949294;28;20326;-78
2021/01/26 01:51:14;;;;;;;18.87;11.83;;;;;;;;;;4950418;29;20275;-81
2021/01/26 01:53:44;;;;;;;19.73;12.70;;;;;;;;;;4949578;29;20283;-80
2021/01/26 01:56:24;;;;;;;21.77;12.80;;;;;;;;;;4933428;29;20279;-81
2021/01/26 01:58:53;;;;;;;18.50;11.73;;;;;;;;;;4943453;28;20286;-79
2021/01/26 02:01:20;;;;;;;22.77;12.73;;;;;;;;;;4932824;29;20311;-80
2021/01/26 02:03:48;;;;;;;19.13;11.63;;;;;;;;;;4950100;29;20270;-79
2021/01/26 02:06:14;;;;;;;19.93;12.43;;;;;;;;;;4949313;29;20283;-81
2021/01/26 02:08:42;;;;;;;17.87;12.13;;;;;;;;;;4948330;28;20283;-80
2021/01/26 02:11:09;;;;;;;22.40;12.93;;;;;;;;;;4933958;29;20271;-80
2021/01/26 02:13:35;;;;;;;22.63;13.13;;;;;;;;;;4935083;29;20350;-79
2021/01/26 02:16:02;;;;;;;22.37;13.10;;;;;;;;;;4948205;29;20287;-80
2021/01/26 02:18:31;;;;;;;19.43;12.30;;;;;;;;;;4939687;28;20375;-81
2021/01/26 02:21:17;;;;;;;19.27;11.13;;;;;;;;;;4933753;29;20342;-81
2021/01/26 02:23:49;;;;;;;19.87;11.43;;;;;;;;;;4931969;29;20282;-81
2021/01/26 02:26:34;;;;;;;19.33;11.20;;;;;;;;;;4927115;29;20276;-79
2021/01/26 02:29:00;;;;;;;18.87;12.23;;;;;;;;;;4947308;28;20339;-81
2021/01/26 02:31:45;;;;;;;19.20;12.33;;;;;;;;;;4935051;29;20298;-81
2021/01/26 02:34:11;;;;;;;21.70;12.73;;;;;;;;;;4947581;29;20292;-81
2021/01/26 02:36:56;;;;;;;19.27;12.30;;;;;;;;;;4947839;28;20303;-77
2021/01/26 02:39:50;;;;;;;19.47;11.30;;;;;;;;;;4950412;28;20370;-79
2021/01/26 02:42:20;;;;;;;20.57;11.53;;;;;;;;;;4933224;29;20279;-81
2021/01/26 02:44:52;;;;;;;18.97;12.20;;;;;;;;;;4934729;29;20268;-80
2021/01/26 02:47:30;;;;;;;20.27;13.47;;;;;;;;;;4932232;29;20315;-80
2021/01/26 02:50:06;;;;;;;21.90;12.77;;;;;;;;;;4947717;28;20283;-80
2021/01/26 02:52:41;;;;;;;18.37;11.07;;;;;;;;;;4932681;29;20272;-78
2021/01/26 02:55:10;;;;;;;18.00;11.17;;;;;;;;;;4948790;29;20355;-81
2021/01/26 02:57:57;;;;;;;12.33;6.57;;;;;;;;;;4941080;28;20777;-80
2021/01/26 03:00:25;;;;;;;17.70;9.93;;;;;;;;;;4949129;28;20370;-79
2021/01/26 03:02:58;;;;;;;19.80;10.30;;;;;;;;;;4935736;29;20720;-80
2021/01/26 03:05:28;;;;;;;18.15;11.30;;;;;;;;;;4951512;29;20268;-80
2021/01/26 03:07:57;;;;;;;19.30;11.43;;;;;;;;;;4950906;29;20028;-80
2021/01/26 03:10:25;;;;;;;19.90;11.47;;;;;;;;;;4934722;29;20271;-80
2021/01/26 03:12:54;;;;;;;27.27;14.17;;;;;;;;;;4934551;29;20674;-80
2021/01/26 03:15:29;;;;;;;23.53;14.13;;;;;;;;;;4953229;29;20272;-78
2021/01/26 03:18:02;;;;;;;24.90;14.13;;;;;;;;;;4966459;29;20659;-78
2021/01/26 03:20:37;;;;;;;23.77;13.95;;;;;;;;;;4949686;29;20400;-77
2021/01/26 03:23:23;;;;;;;25.70;14.57;;;;;;;;;;4965568;29;20023;-79
2021/01/26 03:25:52;;;;;;;25.67;15.10;;;;;;;;;;4965881;29;20275;-78
2021/01/26 03:28:19;;;;;;;26.60;15.23;;;;;;;;;;4965542;29;20286;-77
2021/01/26 03:30:48;;;;;;;23.83;14.50;;;;;;;;;;4964771;28;20335;-78
2021/01/26 03:33:22;;;;;;;28.63;16.27;;;;;;;;;;4950828;29;20290;-78
2021/01/26 03:35:48;;;;;;;23.77;14.93;;;;;;;;;;4966853;29;20279;-77
2021/01/26 03:38:20;;;;;;;23.60;14.23;;;;;;;;;;4954847;29;20366;-81
2021/01/26 03:40:46;;;;;;;24.67;13.43;;;;;;;;;;4952440;28;20287;-80
2021/01/26 03:43:13;;;;;;;23.27;12.77;;;;;;;;;;4952908;29;20825;-80
2021/01/26 03:45:39;;;;;;;25.07;14.37;;;;;;;;;;4947901;28;20692;-79
2021/01/26 03:48:19;;;;;;;23.57;15.03;;;;;;;;;;4949192;28;20781;-81
2021/01/26 03:50:45;;;;;;;23.93;14.57;;;;;;;;;;4953113;28;21181;-81
2021/01/26 03:53:31;;;;;;;21.33;11.83;;;;;;;;;;4935318;29;20271;-81
2021/01/26 03:56:13;;;;;;;26.07;15.53;;;;;;;;;;4937771;29;20322;-80
2021/01/26 03:58:39;;;;;;;26.03;15.03;;;;;;;;;;4968474;28;20299;-81
2021/01/26 04:01:14;;;;;;;24.60;14.13;;;;;;;;;;4951365;29;20292;-81
2021/01/26 04:03:59;;;;;;;22.67;12.57;;;;;;;;;;4931862;29;20276;-81
2021/01/26 04:06:29;;;;;;;23.20;14.37;;;;;;;;;;4944525;29;20267;-80
2021/01/26 04:08:57;;;;;;;19.80;11.77;;;;;;;;;;4931219;29;20319;-80
2021/01/26 04:11:28;;;;;;;23.37;14.33;;;;;;;;;;4949450;29;20268;-78
2021/01/26 04:14:04;;;;;;;24.77;15.00;;;;;;;;;;4935812;29;20279;-80
2021/01/26 04:16:35;;;;;;;24.00;14.33;;;;;;;;;;4948817;29;20329;-80
2021/01/26 04:19:03;;;;;;;25.63;16.33;;;;;;;;;;4947802;28;20298;-81
2021/01/26 04:21:32;;;;;;;30.23;16.23;;;;;;;;;;4948954;29;20271;-81
2021/01/26 04:23:58;;;;;;;24.97;14.90;;;;;;;;;;4949306;29;20291;-80
2021/01/26 04:26:27;;;;;;;25.50;14.83;;;;;;;;;;4949182;28;20282;-81
2021/01/26 04:28:53;;;;;;;22.33;12.90;;;;;;;;;;4933437;29;20785;-80
2021/01/26 04:31:20;;;;;;;25.27;15.33;;;;;;;;;;4933320;29;20673;-78
2021/01/26 04:33:46;;;;;;;21.17;12.70;;;;;;;;;;4935248;29;20746;-79
2021/01/26 04:36:13;;;;;;;22.70;13.90;;;;;;;;;;4948254;28;20291;-80
2021/01/26 04:38:39;;;;;;;19.57;12.13;;;;;;;;;;4930366;29;20279;-81
2021/01/26 04:41:09;;;;;;;19.03;11.73;;;;;;;;;;4948586;29;20293;-81
2021/01/26 04:43:41;;;;;;;22.10;12.90;;;;;;;;;;4951892;29;20267;-80
2021/01/26 04:46:10;;;;;;;22.70;11.53;;;;;;;;;;4952713;29;20283;-80
2021/01/26 04:48:51;;;;;;;18.27;10.83;;;;;;;;;;4932563;29;20362;-81
2021/01/26 04:51:23;;;;;;;25.60;12.37;;;;;;;;;;4948662;29;20287;-82
2021/01/26 04:53:58;;;;;;;20.80;11.60;;;;;;;;;;4948929;29;20280;-80
2021/01/26 04:56:43;;;;;;;20.03;12.27;;;;;;;;;;4947568;29;20307;-80
2021/01/26 04:59:27;;;;;;;20.90;11.43;;;;;;;;;;4948640;28;20295;-79
2021/01/26 05:02:04;;;;;;;22.20;12.97;;;;;;;;;;4952672;29;20808;-81
2021/01/26 05:04:36;;;;;;;17.57;8.97;;;;;;;;;;4938463;29;20268;-81
2021/01/26 05:07:11;;;;;;;23.47;13.53;;;;;;;;;;4951586;28;20264;-81
2021/01/26 05:09:41;;;;;;;22.80;10.73;;;;;;;;;;4936376;29;20810;-80
2021/01/26 05:12:08;;;;;;;23.43;13.43;;;;;;;;;;4935669;29;20252;-79
2021/01/26 05:14:38;;;;;;;22.00;12.07;;;;;;;;;;4952135;29;20310;-80
2021/01/26 05:17:18;;;;;;;22.17;11.20;;;;;;;;;;4934916;29;20438;-81
2021/01/26 05:19:59;;;;;;;27.03;16.73;;;;;;;;;;4949455;28;20287;-80
2021/01/26 05:22:35;;;;;;;22.33;11.97;;;;;;;;;;4951056;28;20318;-79
2021/01/26 05:25:07;;;;;;;22.87;12.47;;;;;;;;;;4951974;29;20291;-81
2021/01/26 05:27:33;;;;;;;24.20;14.70;;;;;;;;;;4951891;29;20263;-81
2021/01/26 05:30:00;;;;;;;22.97;13.57;;;;;;;;;;4951287;28;20292;-81
2021/01/26 05:32:26;;;;;;;22.37;9.87;;;;;;;;;;4952150;29;20287;-81
2021/01/26 05:34:53;;;;;;;31.77;17.30;;;;;;;;;;4951683;29;20284;-81
2021/01/26 05:37:20;;;;;;;24.93;15.17;;;;;;;;;;4950793;29;20278;-81
2021/01/26 05:39:50;;;;;;;25.43;14.43;;;;;;;;;;4950277;28;20291;-80
2021/01/26 05:42:20;;;;;;;27.70;15.70;;;;;;;;;;4952041;29;20280;-81
2021/01/26 05:44:51;;;;;;;22.83;11.23;;;;;;;;;;4934660;29;20271;-81
2021/01/26 05:47:25;;;;;;;26.37;14.43;;;;;;;;;;4941365;28;20292;-81
2021/01/26 05:49:51;;;;;;;25.47;13.97;;;;;;;;;;4947020;28;20363;-80
2021/01/26 05:52:17;;;;;;;22.03;13.07;;;;;;;;;;4934950;29;20286;-81
2021/01/26 05:54:54;;;;;;;20.97;11.57;;;;;;;;;;4949109;28;20279;-81
2021/01/26 05:57:28;;;;;;;18.90;11.07;;;;;;;;;;4952628;28;20298;-81
2021/01/26 06:00:11;;;;;;;20.87;12.33;;;;;;;;;;4935280;28;20302;-81
2021/01/26 06:02:37;;;;;;;21.90;11.32;;;;;;;;;;4951309;29;20346;-81
2021/01/26 06:05:10;;;;;;;22.90;11.97;;;;;;;;;;4951104;29;20028;-81
2021/01/26 06:07:36;;;;;;;22.13;13.02;;;;;;;;;;4946430;29;20280;-80
2021/01/26 06:10:15;;;;;;;19.90;10.83;;;;;;;;;;4949182;28;20035;-82
2021/01/26 06:12:51;;;;;;;22.80;13.57;;;;;;;;;;4937354;29;20267;-81
2021/01/26 06:15:20;;;;;;;21.27;12.50;;;;;;;;;;4953142;29;20896;-80
2021/01/26 06:17:46;;;;;;;18.33;8.00;;;;;;;;;;4948387;29;20284;-83
2021/01/26 06:20:20;;;;;;;15.00;7.20;;;;;;;;;;4935733;29;20287;-81
2021/01/26 06:22:47;;;;;;;19.83;10.57;;;;;;;;;;4939325;29;20290;-81
2021/01/26 06:25:33;;;;;;;25.60;12.27;;;;;;;;;;4953746;29;20390;-80
2021/01/26 06:28:18;;;;;;;20.13;10.67;;;;;;;;;;4946020;29;20793;-81
2021/01/26 06:30:56;;;;;;;19.63;9.23;;;;;;;;;;4963924;28;20366;-81
2021/01/26 06:33:23;;;;;;;22.97;12.33;;;;;;;;;;4965949;28;20347;-80
2021/01/26 06:36:19;;;;;;;22.47;12.33;;;;;;;;;;4935036;29;20310;-83
2021/01/26 06:38:50;;;;;;;21.93;12.43;;;;;;;;;;4938766;28;20773;-83
2021/01/26 06:41:35;;;;;;;23.50;13.17;;;;;;;;;;4951611;29;20363;-83
2021/01/26 06:44:10;;;;;;;19.60;9.93;;;;;;;;;;4951955;29;20264;-82
2021/01/26 06:46:36;;;;;;;21.93;12.03;;;;;;;;;;4943127;28;20359;-82
2021/01/26 06:49:30;;;;;;;13.13;7.63;;;;;;;;;;4921231;29;20785;-79
2021/01/26 06:52:15;;;;;;;20.98;10.20;;;;;;;;;;4921302;29;20315;-81
2021/01/26 06:54:46;;;;;;;16.30;9.00;;;;;;;;;;4951115;29;20027;-82
2021/01/26 06:57:22;;;;;;;19.67;9.63;;;;;;;;;;4935842;29;20287;-82
2021/01/26 07:00:09;;;;;;;25.07;11.87;;;;;;;;;;4951338;28;20291;-82
2021/01/26 07:02:56;;;;;;;17.10;9.20;;;;;;;;;;4966575;28;20310;-81
2021/01/26 07:05:30;;;;;;;17.37;9.00;;;;;;;;;;4949792;29;20335;-82
2021/01/26 07:07:57;;;;;;;22.00;12.60;;;;;;;;;;4933942;29;20299;-82
2021/01/26 07:10:26;;;;;;;21.77;11.40;;;;;;;;;;4944895;28;20283;-82
2021/01/26 07:13:12;;;;;;;14.77;8.17;;;;;;;;;;4951870;29;21097;-79
2021/01/26 07:15:54;;;;;;;25.97;13.33;;;;;;;;;;4949393;28;20287;-80
2021/01/26 07:18:40;;;;;;;20.93;8.67;;;;;;;;;;4949268;29;20271;-81
2021/01/26 07:21:26;;;;;;;22.60;12.20;;;;;;;;;;4950318;28;20299;-82
2021/01/26 07:24:11;;;;;;;23.40;11.30;;;;;;;;;;4963741;28;20275;-82
2021/01/26 07:26:46;;;;;;;22.93;11.87;;;;;;;;;;4936456;29;20291;-78
2021/01/26 07:29:19;;;;;;;17.73;9.97;;;;;;;;;;4929696;29;20287;-82
2021/01/26 07:31:48;;;;;;;18.63;10.05;;;;;;;;;;4950053;29;20310;-81
2021/01/26 07:34:21;;;;;;;22.37;11.80;;;;;;;;;;4951258;29;20037;-82
2021/01/26 07:37:17;;;;;;;22.92;11.45;;;;;;;;;;4932776;29;20279;-81
2021/01/26 07:39:50;;;;;;;20.17;10.97;;;;;;;;;;4916963;29;20637;-78
2021/01/26 07:42:23;;;;;;;21.83;9.70;;;;;;;;;;4938135;29;20272;-80
2021/01/26 07:45:07;;;;;;;21.55;11.85;;;;;;;;;;4934134;29;20477;-81
2021/01/26 07:47:37;;;;;;;25.38;11.07;;;;;;;;;;4953172;28;20031;-80
2021/01/26 07:50:07;;;;;;;22.00;12.63;;;;;;;;;;4949444;28;20031;-79
2021/01/26 07:52:35;;;;;;;23.07;12.57;;;;;;;;;;4950422;28;20351;-82
2021/01/26 07:55:04;;;;;;;22.13;11.90;;;;;;;;;;4953856;28;20310;-81
2021/01/26 07:57:35;;;;;;;27.70;13.33;;;;;;;;;;4948775;28;20755;-81
2021/01/26 08:00:02;;;;;;;17.13;9.70;;;;;;;;;;4929377;29;20286;-82
2021/01/26 08:02:31;;;;;;;19.27;10.63;;;;;;;;;;4936804;29;20322;-82
2021/01/26 08:04:58;;;;;;;18.37;9.20;;;;;;;;;;4953945;28;20260;-80
2021/01/26 08:07:30;;;;;;;17.43;8.83;;;;;;;;;;4933917;29;20271;-81
2021/01/26 08:10:00;;;;;;;16.20;9.33;;;;;;;;;;4931144;29;20960;-81
2021/01/26 08:12:32;;;;;;;16.33;9.50;;;;;;;;;;4938805;29;20287;-81
2021/01/26 08:15:17;;;;;;;15.13;8.53;;;;;;;;;;4952623;28;20284;-83
2021/01/26 08:17:43;;;;;;;13.43;7.53;;;;;;;;;;4948678;29;20282;-80
2021/01/26 08:20:25;;;;;;;15.63;8.33;;;;;;;;;;4946276;28;20938;-81
2021/01/26 08:23:04;;;;;;;17.70;9.07;;;;;;;;;;4950163;28;20286;-81
2021/01/26 08:25:33;;;;;;;17.83;8.73;;;;;;;;;;4949455;29;20271;-81
2021/01/26 08:28:00;;;;;;;15.57;9.17;;;;;;;;;;4948529;29;20267;-81
2021/01/26 08:30:48;;;;;;;15.97;9.03;;;;;;;;;;4931777;29;20272;-80
2021/01/26 08:33:17;;;;;;;15.37;8.07;;;;;;;;;;4936208;29;20267;-81
2021/01/26 08:35:46;;;;;;;14.83;8.33;;;;;;;;;;4953605;29;20315;-80
2021/01/26 08:38:33;;;;;;;14.63;7.90;;;;;;;;;;4942327;29;20272;-80
2021/01/26 08:40:59;;;;;;;13.57;7.67;;;;;;;;;;4952965;29;20334;-80
2021/01/26 08:43:44;;;;;;;16.67;7.80;;;;;;;;;;4953571;29;20277;-83
2021/01/26 08:46:10;;;;;;;13.60;7.50;;;;;;;;;;4936940;29;20268;-80
2021/01/26 08:48:36;;;;;;;14.07;7.70;;;;;;;;;;4948407;28;20303;-80
2021/01/26 08:51:05;;;;;;;13.73;6.83;;;;;;;;;;4952487;28;20370;-82
2021/01/26 08:53:35;;;;;;;12.87;6.30;;;;;;;;;;4953019;29;20645;-79
2021/01/26 08:56:13;;;;;;;14.00;7.77;;;;;;;;;;4936649;29;20280;-81
2021/01/26 08:58:41;;;;;;;12.20;6.40;;;;;;;;;;4944905;28;20844;-79
2021/01/26 09:01:12;;;;;;;12.70;7.27;;;;;;;;;;4956159;28;20287;-79
2021/01/26 09:03:41;;;;;;;12.20;6.03;;;;;;;;;;4952481;29;20283;-82
2021/01/26 09:06:14;;;;;;;14.50;7.80;;;;;;;;;;4954189;29;20334;-82
2021/01/26 09:08:40;;;;;;;10.48;6.53;;;;;;;;;;4936829;29;20705;-81
2021/01/26 09:11:25;;;;;;;10.93;5.33;;;;;;;;;;4954126;29;20032;-82
2021/01/26 09:13:52;;;;;;;12.53;6.23;;;;;;;;;;4953892;29;20353;-79
2021/01/26 09:16:23;;;;;;;14.50;6.83;;;;;;;;;;4952745;29;20339;-83
2021/01/26 09:18:53;;;;;;;12.53;6.70;;;;;;;;;;4936701;29;20279;-80
2021/01/26 09:21:19;;;;;;;9.83;5.53;;;;;;;;;;4936833;29;20276;-79
2021/01/26 09:23:46;;;;;;;16.47;9.27;;;;;;;;;;4953646;29;20279;-83
2021/01/26 09:26:16;;;;;;;12.07;7.43;;;;;;;;;;4948378;28;20284;-80
2021/01/26 09:28:49;;;;;;;12.87;6.90;;;;;;;;;;4948159;28;20327;-83
2021/01/26 09:31:20;;;;;;;12.10;6.72;;;;;;;;;;4956342;28;20813;-81
2021/01/26 09:33:46;;;;;;;11.37;6.17;;;;;;;;;;4952912;28;20043;-84
2021/01/26 09:36:14;;;;;;;11.60;4.83;;;;;;;;;;4953662;29;20280;-82
2021/01/26 09:38:41;;;;;;;10.10;4.50;;;;;;;;;;4958692;28;20307;-83
2021/01/26 09:41:14;;;;;;;13.70;4.77;;;;;;;;;;4953787;29;20292;-83
2021/01/26 09:43:45;;;;;;;8.32;3.90;;;;;;;;;;4947487;28;20330;-83
2021/01/26 09:46:29;;;;;;;7.13;3.67;;;;;;;;;;4939354;29;20087;-84
2021/01/26 09:49:14;;;;;;;11.07;5.13;;;;;;;;;;4955301;28;20565;-83
2021/01/26 09:51:43;;;;;;;12.13;5.63;;;;;;;;;;4953448;28;20303;-83
2021/01/26 09:54:13;;;;;;;10.77;4.53;;;;;;;;;;4961309;29;20346;-81
2021/01/26 09:56:39;;;;;;;9.53;5.10;;;;;;;;;;4948044;29;20279;-83
2021/01/26 09:59:09;;;;;;;9.17;3.90;;;;;;;;;;4953640;28;20275;-84
2021/01/26 10:01:36;;;;;;;11.73;4.87;;;;;;;;;;4952448;29;20705;-83
2021/01/26 10:04:07;;;;;;;10.10;4.50;;;;;;;;;;4954041;28;20272;-82
2021/01/26 10:06:36;;;;;;;9.40;3.63;;;;;;;;;;4953145;28;20342;-83
2021/01/26 10:09:21;;;;;;;9.43;4.23;;;;;;;;;;4939313;29;20366;-82
2021/01/26 10:11:48;;;;;;;9.60;4.53;;;;;;;;;;4943122;28;20366;-82
2021/01/26 10:14:17;;;;;;;8.13;3.37;;;;;;;;;;4956327;28;20988;-82
2021/01/26 10:16:46;;;;;;;7.90;3.80;;;;;;;;;;4954291;28;20327;-79
2021/01/26 10:19:24;;;;;;;7.40;3.17;;;;;;;;;;4958669;28;20350;-83
2021/01/26 10:21:52;;;;;;;8.07;4.33;;;;;;;;;;4948830;29;20283;-82
2021/01/26 10:24:21;;;;;;;9.17;3.50;;;;;;;;;;4933475;29;20290;-82
2021/01/26 10:26:52;;;;;;;14.83;5.20;;;;;;;;;;4933580;29;20276;-83
2021/01/26 10:29:20;;;;;;;11.83;4.13;;;;;;;;;;4942534;28;20802;-81
2021/01/26 10:31:59;;;;;;;8.83;4.27;;;;;;;;;;4951989;29;20283;-82
2021/01/26 10:34:31;;;;;;;12.67;5.93;;;;;;;;;;4951829;29;20264;-82
2021/01/26 10:37:16;;;;;;;12.53;4.67;;;;;;;;;;4934557;29;20299;-80
2021/01/26 10:39:44;;;;;;;11.13;4.67;;;;;;;;;;4949860;28;20291;-81
2021/01/26 10:42:20;;;;;;;9.83;4.47;;;;;;;;;;4950280;29;20283;-82
2021/01/26 10:44:47;;;;;;;7.77;4.50;;;;;;;;;;4951281;29;20271;-80
2021/01/26 10:47:33;;;;;;;8.60;4.10;;;;;;;;;;4952954;29;20985;-81
2021/01/26 10:50:00;;;;;;;8.53;3.70;;;;;;;;;;4949367;28;20287;-80
2021/01/26 10:52:41;;;;;;;8.87;4.03;;;;;;;;;;4950701;29;20308;-80
2021/01/26 10:55:10;;;;;;;5.90;3.00;;;;;;;;;;4951042;29;20283;-81
2021/01/26 10:57:36;;;;;;;7.57;3.70;;;;;;;;;;4937866;29;20086;-83
2021/01/26 11:00:03;;;;;;;7.77;3.77;;;;;;;;;;4945161;28;20473;-81
2021/01/26 11:02:29;;;;;;;6.17;2.70;;;;;;;;;;4949341;29;20031;-81
2021/01/26 11:04:55;;;;;;;9.30;3.47;;;;;;;;;;4948695;29;20709;-85
2021/01/26 11:07:22;;;;;;;6.10;3.33;;;;;;;;;;4945238;29;20027;-82
2021/01/26 11:09:49;;;;;;;4.83;2.20;;;;;;;;;;4948265;28;20283;-85
2021/01/26 11:12:22;;;;;;;6.90;3.00;;;;;;;;;;4949541;29;20298;-85
2021/01/26 11:14:48;;;;;;;12.73;3.28;;;;;;;;;;4949952;29;20284;-81
2021/01/26 11:17:15;;;;;;;9.90;3.83;;;;;;;;;;4964580;28;20031;-80
2021/01/26 11:19:42;;;;;;;6.53;3.07;;;;;;;;;;4954457;28;20916;-81
2021/01/26 11:22:11;;;;;;;7.63;3.13;;;;;;;;;;4938034;29;20267;-83
2021/01/26 11:24:37;;;;;;;6.47;3.10;;;;;;;;;;4936330;28;20951;-84
2021/01/26 11:27:03;;;;;;;9.63;3.00;;;;;;;;;;4946703;29;21067;-85
2021/01/26 11:29:30;;;;;;;7.63;3.33;;;;;;;;;;4937866;29;20287;-83
2021/01/26 11:31:56;;;;;;;7.63;3.30;;;;;;;;;;4954559;28;20024;-81
2021/01/26 11:34:23;;;;;;;5.90;2.83;;;;;;;;;;4962674;28;20046;-81
2021/01/26 11:36:49;;;;;;;9.40;3.97;;;;;;;;;;4938201;29;20107;-82
2021/01/26 11:39:15;;;;;;;6.40;2.20;;;;;;;;;;4945895;29;20083;-82
2021/01/26 11:41:41;;;;;;;4.57;1.60;;;;;;;;;;4959760;28;20087;-82
2021/01/26 11:44:07;;;;;;;6.23;2.40;;;;;;;;;;4951625;29;20472;-83
2021/01/26 11:46:34;;;;;;;7.27;2.47;;;;;;;;;;4944469;28;20095;-81
2021/01/26 11:49:00;;;;;;;6.07;2.63;;;;;;;;;;4947787;28;20627;-82
2021/01/26 11:51:27;;;;;;;6.63;3.10;;;;;;;;;;4949931;28;20833;-83
2021/01/26 11:53:53;;;;;;;6.10;2.63;;;;;;;;;;4953239;28;20756;-83
2021/01/26 11:56:21;;;;;;;6.77;2.27;;;;;;;;;;4950207;29;21074;-82
2021/01/26 11:58:48;;;;;;;5.77;2.40;;;;;;;;;;4937389;29;20619;-83
2021/01/26 12:01:15;;;;;;;5.30;2.53;;;;;;;;;;4955050;28;20292;-82
2021/01/26 12:03:42;;;;;;;6.70;2.87;;;;;;;;;;4951528;29;20279;-79
2021/01/26 12:06:08;;;;;;;9.37;3.03;;;;;;;;;;4953124;29;20290;-82
2021/01/26 12:08:34;;;;;;;5.77;2.47;;;;;;;;;;4939259;29;20305;-79
2021/01/26 12:11:00;;;;;;;7.70;3.07;;;;;;;;;;4944558;28;20287;-81
2021/01/26 12:13:28;;;;;;;5.40;2.17;;;;;;;;;;4958015;28;20294;-82
2021/01/26 12:15:54;;;;;;;4.27;1.80;;;;;;;;;;4953464;28;20833;-84
2021/01/26 12:18:20;;;;;;;9.97;3.20;;;;;;;;;;4956545;29;20378;-81
2021/01/26 12:20:46;;;;;;;9.40;2.53;;;;;;;;;;4962488;28;20402;-81
2021/01/26 12:23:13;;;;;;;7.43;2.40;;;;;;;;;;4957880;28;20315;-81
2021/01/26 12:25:40;;;;;;;15.03;7.60;;;;;;;;;;4959134;29;20562;-83
2021/01/26 12:28:09;;;;;;;7.43;2.63;;;;;;;;;;4943079;29;20295;-81
2021/01/26 12:30:35;;;;;;;8.80;3.60;;;;;;;;;;4956050;29;20299;-81
2021/01/26 12:33:01;;;;;;;8.00;3.27;;;;;;;;;;4954366;28;20268;-83
2021/01/26 12:35:30;;;;;;;9.77;2.90;;;;;;;;;;4956209;28;20267;-81
2021/01/26 12:37:56;;;;;;;7.17;2.83;;;;;;;;;;4955615;29;20799;-83
2021/01/26 12:40:23;;;;;;;4.03;1.77;;;;;;;;;;4949621;28;20773;-81
2021/01/26 12:42:49;;;;;;;6.97;2.93;;;;;;;;;;4944228;29;20278;-83
2021/01/26 12:45:16;;;;;;;6.93;2.50;;;;;;;;;;4956720;28;20792;-80
2021/01/26 12:47:43;;;;;;;5.97;2.13;;;;;;;;;;4952870;28;20287;-80
2021/01/26 12:50:10;;;;;;;7.03;2.57;;;;;;;;;;4936172;29;20293;-86
2021/01/26 12:52:36;;;;;;;5.53;1.77;;;;;;;;;;4956604;28;20282;-81
2021/01/26 12:55:03;;;;;;;6.53;2.33;;;;;;;;;;4956390;29;20489;-83
2021/01/26 12:57:29;;;;;;;8.67;2.50;;;;;;;;;;4955156;29;20779;-81
2021/01/26 12:59:55;;;;;;;3.97;1.30;;;;;;;;;;4937664;29;20031;-83
2021/01/26 13:02:23;;;;;;;7.13;2.03;;;;;;;;;;4941061;29;20272;-83
2021/01/26 13:04:49;;;;;;;7.43;2.37;;;;;;;;;;4957120;29;20267;-82
2021/01/26 13:07:17;;;;;;;6.33;2.60;;;;;;;;;;4941274;29;20279;-82
2021/01/26 13:09:43;;;;;;;7.07;2.20;;;;;;;;;;4956535;28;20287;-83
2021/01/26 13:12:13;;;;;;;6.63;2.87;;;;;;;;;;4954749;28;20468;-80
2021/01/26 13:14:41;;;;;;;6.63;2.83;;;;;;;;;;4956763;29;20693;-84
2021/01/26 13:17:07;;;;;;;6.20;2.90;;;;;;;;;;4938627;29;20828;-82
2021/01/26 13:19:34;;;;;;;6.70;2.57;;;;;;;;;;4939721;29;20299;-83
2021/01/26 13:22:00;;;;;;;8.90;2.87;;;;;;;;;;4934704;29;20979;-81
2021/01/26 13:24:29;;;;;;;4.40;2.30;;;;;;;;;;4936678;29;20294;-84
2021/01/26 13:26:55;;;;;;;8.07;3.37;;;;;;;;;;4953506;29;20282;-82
2021/01/26 13:29:21;;;;;;;8.67;2.80;;;;;;;;;;4951608;28;20311;-83
2021/01/26 13:31:47;;;;;;;7.93;2.80;;;;;;;;;;4953204;29;20303;-82
2021/01/26 13:34:13;;;;;;;7.80;2.30;;;;;;;;;;4937134;29;20286;-83
2021/01/26 13:36:42;;;;;;;6.27;3.07;;;;;;;;;;4937374;29;20687;-82
2021/01/26 13:39:08;;;;;;;7.40;3.33;;;;;;;;;;4935539;28;21041;-82
2021/01/26 13:41:34;;;;;;;8.63;4.07;;;;;;;;;;4954024;29;20288;-84
2021/01/26 13:44:03;;;;;;;6.60;2.47;;;;;;;;;;4955308;29;20304;-84
2021/01/26 13:46:29;;;;;;;9.77;3.70;;;;;;;;;;4944841;28;20427;-81
2021/01/26 13:48:55;;;;;;;6.93;2.50;;;;;;;;;;4927585;29;20292;-83
2021/01/26 13:51:22;;;;;;;5.33;2.63;;;;;;;;;;4957039;28;20286;-84
2021/01/26 13:53:50;;;;;;;10.40;3.00;;;;;;;;;;4954381;29;20374;-85
2021/01/26 13:56:16;;;;;;;8.23;4.00;;;;;;;;;;4948772;29;20295;-84
2021/01/26 13:58:43;;;;;;;9.93;4.23;;;;;;;;;;4937374;29;20307;-83
2021/01/26 14:01:09;;;;;;;16.63;6.70;;;;;;;;;;4955320;29;20367;-80
2021/01/26 14:03:35;;;;;;;7.70;3.67;;;;;;;;;;4937906;29;20363;-83
2021/01/26 14:06:03;;;;;;;5.40;2.53;;;;;;;;;;4952889;28;20303;-84
2021/01/26 14:08:29;;;;;;;6.37;2.90;;;;;;;;;;4951161;28;20287;-80
2021/01/26 14:10:55;;;;;;;6.73;2.33;;;;;;;;;;4951774;29;20275;-81
2021/01/26 14:13:22;;;;;;;9.07;2.80;;;;;;;;;;4952033;29;20287;-84
2021/01/26 14:15:48;;;;;;;8.43;3.07;;;;;;;;;;4952884;29;20812;-81
2021/01/26 14:18:15;;;;;;;8.03;2.83;;;;;;;;;;4937780;29;20272;-82
2021/01/26 14:20:41;;;;;;;8.53;3.90;;;;;;;;;;4952503;28;20801;-80
2021/01/26 14:23:09;;;;;;;8.03;3.43;;;;;;;;;;4953748;29;20495;-83
2021/01/26 14:25:37;;;;;;;12.90;3.00;;;;;;;;;;4952979;28;20275;-83
2021/01/26 14:28:03;;;;;;;9.40;4.37;;;;;;;;;;4952900;29;20275;-83
2021/01/26 14:30:29;;;;;;;7.10;2.80;;;;;;;;;;4933122;29;20290;-80
2021/01/26 14:32:55;;;;;;;8.67;3.20;;;;;;;;;;4952161;29;20660;-82
2021/01/26 14:35:23;;;;;;;6.20;2.70;;;;;;;;;;4951465;29;20276;-81
2021/01/26 14:37:49;;;;;;;8.27;3.03;;;;;;;;;;4951433;28;20287;-82
2021/01/26 14:40:15;;;;;;;6.87;2.23;;;;;;;;;;4930570;29;20292;-82
2021/01/26 14:42:41;;;;;;;6.63;3.23;;;;;;;;;;4945223;28;20280;-81
2021/01/26 14:45:09;;;;;;;8.87;3.13;;;;;;;;;;4952330;28;20282;-83
2021/01/26 14:47:35;;;;;;;6.97;2.87;;;;;;;;;;4950627;28;20295;-83